ΕΜΥ, Εθνική Μετεωρολογική Υπηρεσία - Δελτία Καιρού, Προγνώσεις

ΑΕΡΟΝΑΥΤΙΛΙΑ

GREEK AIRPORTS CODES

TAF LGPZ 252300Z 2600/2624 09020KT 9999 FEW018 BKN080 TEMPO 2600/2606 09020G30KT PROB40 TEMPO 2600/2603 5000 RA FEW012 FEW018TCU SCT020 BKN070=

EUROPEAN AIRPORTS CODES

LFPO 260200Z 23005KT 7000 R25/1000D MIFG NSC 09/09 Q1022NOSIG=